COYOTE (LAKE MENDOCINO) (COY)

Elevation: 720' · RUSSIAN R basin · Operator: US Army Corps of Engineers

Provisional data, subject to change.
Query executed Saturday at 18:15:16

Select a sensor type for a plot of data.
Note: Reservoir Flows are daily averages.

Earlier

Date RES ELE    STORAGE    RES CHG    TOC STO    ABV TOC    OUTFLOW    INFLOW    PPT INC    TEMP MN    TEMP MX    EVP PAN   
 FEET   AF   AF   AF   AF   CFS   CFS   INCHES   DEG F   DEG F   INCHES  
11/11/2016 725.43 49289 -225 68410 -19121 155 45 0.00 48 69 0.05
11/12/2016 725.32 49124 -- -- -- 155 76 0.13 10 20 0.07
11/13/2016 725.19 48930 -- -- -- 155 62 0.00 8 24 0.08
11/14/2016 725.06 48736 -194 68410 -19674 156 63 0.00 8 22 0.07
11/15/2016 724.94 48558 -- -- -- 159 72 0.07 9 15 0.04
11/16/2016 724.80 48349 -209 68410 -20061 159 57 0.01 4 14 0.05
11/17/2016 724.66 48142 -207 68410 -20268 159 59 0.00 0 16 0.07
11/18/2016 724.51 47919 -223 68410 -20491 159 52 0.04 2 17 0.09
11/19/2016 724.85 48424 -- 68410 -19986 162 419 1.54 8 14 0.03
11/20/2016 724.99 48632 -- 68410 -19778 109 217 0.26 8 18 0.05
11/21/2016 725.05 48721 89 68410 -19689 61 110 0.00 5 16 0.05
11/22/2016 725.08 48766 45 68410 -19644 90 115 0.35 4 13 0.04
11/23/2016 725.21 48960 194 68410 -19450 91 191 0.26 2 13 0.04
11/24/2016 725.28 49065 105 68410 -19345 57 113 0.00 -0 14 0.05
11/25/2016 725.30 49094 29 68410 -19316 84 101 0.00 5 13 0.03
11/26/2016 725.65 49619 525 68410 -18791 72 339 1.18 7 11 0.03
11/27/2016 726.33 50643 1024 68410 -17767 37 555 0.16 3 12 0.04
11/28/2016 726.58 51021 378 68410 -17389 37 230 0.15 5 15 0.05
11/29/2016 726.70 51203 182 68410 -17207 37 132 0.00 0 17 0.06
11/30/2016 726.77 51309 106 68410 -17101 54 110 0.00 3 14 0.04
12/01/2016 726.79 51340 31 68410 -17070 83 102 0.00 0 15 0.05
12/02/2016 726.78 51325 -15 68410 -17085 102 97 0.00 -1 16 0.05
12/03/2016 726.74 51264 -61 68410 -17146 116 89 0.00 3 18 0.06
12/04/2016 726.69 51188 -76 68410 -17222 123 87 0.00 3 16 0.04
12/05/2016 726.64 51112 -76 68410 -17298 127 91 0.00 3 10 0.03
12/06/2016 726.58 51021 -91 68410 -17389 128 84 0.00 0 11 0.04
12/07/2016 726.52 50930 -91 68410 -17480 131 87 0.47 -2 8 0.02
12/08/2016 726.57 51006 76 68410 -17404 100 139 0.23 4 9 0.02
12/09/2016 726.71 51218 212 68410 -17192 48 157 0.68 9 15 0.03
12/10/2016 -- -- -- -- -- -- -- -- -- -- --

Later | Latest

Warning! This data is preliminary and subject to revision.

Show COY Map | Plot COY Data | 1 Month COY Data | Real-Time COY Data | COY Info